Time;durP1;ratioP1;P1;durP2;ratioP2;P2;SDS_P1;SDS_P2;PMS_P1;PMS_P2;Temp;Humidity;BMP_temperature;BMP_pressure;BME280_temperature;BME280_humidity;BME280_pressure;Samples;Min_cycle;Max_cycle;Signal;HPM_P1;HPM_P2
2023/01/05 00:01:04;;;;;;;10.73;6.80;;;21.40;61.70;;;;;;5072323;28;20386;-71
2023/01/05 00:03:31;;;;;;;9.63;6.68;;;21.50;61.50;;;;;;5072445;28;20428;-72
2023/01/05 00:06:11;;;;;;;8.90;6.30;;;21.50;61.50;;;;;;5019814;28;20458;-70
2023/01/05 00:08:39;;;;;;;8.00;5.88;;;21.60;61.20;;;;;;5072164;28;20049;-72
2023/01/05 00:22:30;;;;;;;10.32;7.60;;;21.40;60.80;;;;;;5072062;28;20036;-73
2023/01/05 00:24:57;;;;;;;11.57;7.05;;;21.60;61.00;;;;;;5071947;28;20044;-71
2023/01/05 00:27:23;;;;;;;13.02;8.25;;;21.50;61.10;;;;;;5071517;28;20382;-70
2023/01/05 00:29:49;;;;;;;9.35;6.90;;;21.50;60.80;;;;;;5071973;28;20119;-72
2023/01/05 00:32:15;;;;;;;8.27;5.90;;;21.40;60.70;;;;;;5053887;28;20071;-72
2023/01/05 00:34:41;;;;;;;10.00;6.78;;;21.40;60.80;;;;;;5072054;28;20032;-72
2023/01/05 00:37:07;;;;;;;10.48;6.90;;;21.40;60.70;;;;;;5053718;28;20041;-70
2023/01/05 00:39:33;;;;;;;7.43;6.03;;;21.30;60.00;;;;;;5053729;28;20052;-70
2023/01/05 00:41:59;;;;;;;7.85;5.18;;;21.40;60.80;;;;;;5071480;28;20501;-72
2023/01/05 00:44:25;;;;;;;6.13;5.07;;;21.30;60.70;;;;;;5052604;28;20079;-72
2023/01/05 00:46:51;;;;;;;9.40;5.80;;;21.50;60.20;;;;;;5053513;28;20404;-69
2023/01/05 00:49:17;;;;;;;8.25;5.90;;;21.60;60.10;;;;;;5028564;28;20402;-72
2023/01/05 00:51:43;;;;;;;8.20;5.78;;;21.70;59.60;;;;;;5029101;28;20052;-73
2023/01/05 00:54:09;;;;;;;9.75;5.38;;;21.50;59.50;;;;;;5028772;28;20049;-73
2023/01/05 00:56:35;;;;;;;10.80;5.95;;;21.50;59.60;;;;;;5020993;28;20045;-73
2023/01/05 00:59:01;;;;;;;8.40;5.78;;;21.60;59.40;;;;;;4992580;28;20695;-73
2023/01/05 01:01:27;;;;;;;14.13;6.32;;;21.60;59.60;;;;;;4992505;28;20128;-71
2023/01/05 01:03:54;;;;;;;10.25;6.05;;;21.60;59.50;;;;;;5008948;28;20590;-73
2023/01/05 01:06:20;;;;;;;7.00;6.22;;;21.50;59.70;;;;;;5008935;28;20124;-72
2023/01/05 01:08:46;;;;;;;9.18;6.97;;;21.40;59.80;;;;;;5008311;28;20527;-73
2023/01/05 01:11:12;;;;;;;9.43;6.22;;;21.30;59.80;;;;;;4992257;28;20084;-72
2023/01/05 01:13:39;;;;;;;8.10;6.35;;;21.30;59.80;;;;;;5009113;28;20096;-72
2023/01/05 01:16:10;;;;;;;11.43;6.35;;;21.30;60.20;;;;;;5008772;28;20034;-70
2023/01/05 01:18:36;;;;;;;8.23;5.97;;;21.30;60.20;;;;;;5008641;28;20033;-74
2023/01/05 01:21:02;;;;;;;8.10;5.63;;;21.20;60.20;;;;;;5028884;28;20457;-73
2023/01/05 01:23:28;;;;;;;7.05;5.50;;;21.10;60.70;;;;;;5050894;28;20032;-73
2023/01/05 01:25:55;;;;;;;9.48;5.63;;;21.10;60.60;;;;;;5033171;28;20122;-72
2023/01/05 01:28:24;;;;;;;9.07;5.75;;;21.10;60.40;;;;;;5050701;28;20052;-72
2023/01/05 01:30:50;;;;;;;8.90;6.18;;;21.10;60.10;;;;;;5033107;28;20025;-72
2023/01/05 01:33:15;;;;;;;10.90;5.75;;;21.00;60.20;;;;;;5050966;28;20039;-73
2023/01/05 01:35:41;;;;;;;8.40;6.38;;;21.10;60.40;;;;;;5050772;28;20037;-73
2023/01/05 01:38:07;;;;;;;8.20;6.00;;;21.00;60.10;;;;;;5032815;28;20029;-73
2023/01/05 01:40:38;;;;;;;9.43;7.05;;;21.00;60.20;;;;;;5050738;28;20409;-72
2023/01/05 01:43:18;;;;;;;9.48;6.35;;;20.90;60.10;;;;;;5050535;28;20128;-72
2023/01/05 01:45:44;;;;;;;8.73;5.68;;;20.90;60.30;;;;;;5032734;28;20485;-73
2023/01/05 01:48:16;;;;;;;8.15;5.60;;;21.00;60.40;;;;;;5032557;28;20025;-72
2023/01/05 01:50:52;;;;;;;7.18;5.45;;;21.00;60.40;;;;;;5050414;28;20045;-72
2023/01/05 01:53:23;;;;;;;8.90;5.53;;;20.90;60.20;;;;;;5032574;28;20128;-73
2023/01/05 01:55:51;;;;;;;8.80;6.00;;;20.90;60.10;;;;;;5033024;28;20112;-71
2023/01/05 01:58:21;;;;;;;8.57;5.35;;;21.00;59.30;;;;;;5032446;28;20394;-71
2023/01/05 02:00:47;;;;;;;7.35;4.95;;;21.10;59.60;;;;;;5032627;28;20033;-72
2023/01/05 02:03:13;;;;;;;7.85;5.28;;;21.00;59.90;;;;;;5050489;28;20458;-72
2023/01/05 02:05:39;;;;;;;7.32;5.43;;;21.00;59.70;;;;;;5050462;28;20048;-72
2023/01/05 02:08:12;;;;;;;7.15;5.03;;;21.00;59.70;;;;;;5050347;28;20044;-72
2023/01/05 02:10:53;;;;;;;6.93;4.45;;;21.00;59.70;;;;;;5056895;28;20521;-72
2023/01/05 02:13:49;;;;;;;10.77;5.25;;;21.10;59.40;;;;;;5069252;28;20495;-73
2023/01/05 02:16:27;;;;;;;6.30;4.93;;;21.10;59.20;;;;;;5070292;28;20036;-73
2023/01/05 02:19:06;;;;;;;8.43;5.00;;;21.10;59.20;;;;;;5052345;28;20044;-71
2023/01/05 02:21:52;;;;;;;7.90;5.97;;;21.10;59.30;;;;;;5073532;28;20528;-72
2023/01/05 02:24:35;;;;;;;6.45;5.28;;;21.20;59.00;;;;;;5015133;28;20042;-72
2023/01/05 02:27:19;;;;;;;8.20;5.57;;;21.30;59.10;;;;;;5014956;28;20104;-69
2023/01/05 02:30:23;;;;;;;7.88;6.03;;;21.30;59.10;;;;;;5015049;28;20086;-72
2023/01/05 02:32:55;;;;;;;9.63;6.30;;;21.30;59.00;;;;;;5014886;28;20036;-72
2023/01/05 02:36:02;;;;;;;7.70;6.07;;;21.30;58.90;;;;;;5014300;28;20072;-72
2023/01/05 02:38:30;;;;;;;9.52;6.30;;;21.40;58.90;;;;;;4991093;28;20129;-73
2023/01/05 02:41:05;;;;;;;8.07;6.13;;;21.30;59.00;;;;;;4991170;28;20520;-71
2023/01/05 02:43:33;;;;;;;12.13;5.72;;;21.30;59.10;;;;;;4990962;28;20058;-69
2023/01/05 02:45:59;;;;;;;10.75;5.80;;;21.30;59.00;;;;;;4974952;28;20038;-71
2023/01/05 02:48:25;;;;;;;8.07;5.68;;;21.30;58.90;;;;;;5010150;28;20458;-70
2023/01/05 02:51:06;;;;;;;6.63;5.57;;;21.40;58.90;;;;;;4994230;28;20049;-71
2023/01/05 02:53:38;;;;;;;8.15;5.50;;;21.20;58.70;;;;;;4994480;28;20080;-72
2023/01/05 02:56:23;;;;;;;6.22;4.78;;;21.30;58.90;;;;;;5011001;28;20463;-72
2023/01/05 02:58:57;;;;;;;6.10;4.65;;;21.40;58.60;;;;;;5011159;28;20073;-72
2023/01/05 03:01:30;;;;;;;5.68;4.30;;;21.60;58.30;;;;;;5004154;28;20189;-71
2023/01/05 03:03:59;;;;;;;7.32;5.20;;;21.70;58.10;;;;;;5014355;28;20483;-72
2023/01/05 03:06:45;;;;;;;6.30;4.00;;;21.90;57.70;;;;;;5013208;28;20130;-72
2023/01/05 03:09:15;;;;;;;6.38;4.63;;;21.90;57.60;;;;;;4997784;28;20049;-72
2023/01/05 03:14:57;;;;;;;6.90;4.70;;;22.10;57.30;;;;;;5031300;28;20028;-72
2023/01/05 03:17:43;;;;;;;7.80;4.97;;;22.10;57.50;;;;;;5091133;28;20040;-69
2023/01/05 03:20:13;;;;;;;6.43;4.88;;;22.10;57.50;;;;;;5059105;28;20068;-72
2023/01/05 03:37:29;;;;;;;5.63;4.47;;;21.90;58.10;;;;;;5010735;28;20038;-73
2023/01/05 03:40:00;;;;;;;6.65;4.22;;;21.90;58.10;;;;;;4994142;28;20088;-71
2023/01/05 03:42:29;;;;;;;6.35;4.47;;;22.00;58.00;;;;;;4994060;28;20054;-72
2023/01/05 03:44:59;;;;;;;4.80;4.03;;;22.10;57.60;;;;;;4977531;28;20077;-71
2023/01/05 03:47:27;;;;;;;5.65;4.57;;;22.10;57.80;;;;;;4951776;29;20043;-71
2023/01/05 03:49:53;;;;;;;6.32;5.22;;;22.10;57.40;;;;;;4951990;29;20106;-70
2023/01/05 03:52:19;;;;;;;8.18;5.68;;;22.10;57.50;;;;;;4951954;29;20043;-70
2023/01/05 03:54:45;;;;;;;8.68;5.07;;;22.10;57.80;;;;;;4935920;29;20039;-70
2023/01/05 03:57:11;;;;;;;8.98;5.35;;;22.00;57.80;;;;;;4952016;29;20047;-72
2023/01/05 03:59:38;;;;;;;7.97;5.78;;;21.80;57.90;;;;;;4948344;28;20039;-73
2023/01/05 04:02:04;;;;;;;9.63;6.03;;;21.80;58.20;;;;;;4954907;28;20101;-73
2023/01/05 04:04:31;;;;;;;8.80;5.90;;;21.70;58.40;;;;;;4954596;28;20047;-70
2023/01/05 04:06:59;;;;;;;8.18;5.57;;;21.70;58.40;;;;;;4970869;28;20082;-73
2023/01/05 04:09:25;;;;;;;8.75;6.00;;;21.70;58.50;;;;;;4970668;28;20055;-72
2023/01/05 04:11:51;;;;;;;8.98;6.13;;;21.70;58.20;;;;;;5007345;28;20213;-72
2023/01/05 04:14:17;;;;;;;6.20;5.30;;;21.70;58.40;;;;;;5046370;28;20061;-72
2023/01/05 04:16:44;;;;;;;8.18;5.47;;;21.60;58.20;;;;;;5013318;28;20073;-70
2023/01/05 04:19:18;;;;;;;7.65;5.55;;;21.60;58.20;;;;;;5061649;28;20066;-73
2023/01/05 04:21:45;;;;;;;8.07;5.45;;;21.70;58.50;;;;;;5070956;28;20032;-71
2023/01/05 04:24:12;;;;;;;12.00;7.22;;;21.70;58.40;;;;;;5072298;28;20040;-71
2023/01/05 04:26:41;;;;;;;7.15;5.25;;;21.60;58.40;;;;;;5070804;28;20058;-72
2023/01/05 04:29:10;;;;;;;7.55;5.47;;;21.60;58.20;;;;;;5070785;28;20033;-71
2023/01/05 04:31:37;;;;;;;10.63;5.75;;;21.60;58.30;;;;;;5070704;28;20036;-72
2023/01/05 04:34:05;;;;;;;8.23;6.07;;;21.50;58.20;;;;;;5054413;28;20029;-73
2023/01/05 04:36:31;;;;;;;8.75;6.28;;;21.60;58.30;;;;;;5053921;28;20056;-69
2023/01/05 04:38:57;;;;;;;8.25;5.93;;;21.50;58.30;;;;;;5070573;28;20447;-72
2023/01/05 04:41:24;;;;;;;10.32;5.93;;;21.60;58.30;;;;;;5071635;28;20024;-72
2023/01/05 04:43:52;;;;;;;9.48;6.22;;;21.50;58.20;;;;;;5069661;28;20250;-72
2023/01/05 04:46:19;;;;;;;9.85;6.43;;;21.40;58.10;;;;;;5070336;28;20036;-72
2023/01/05 04:48:47;;;;;;;10.52;6.75;;;21.50;58.10;;;;;;5070234;28;20037;-72
2023/01/05 04:51:14;;;;;;;9.48;5.78;;;21.50;58.10;;;;;;5071490;28;20106;-71
2023/01/05 04:53:41;;;;;;;9.27;5.93;;;21.40;58.20;;;;;;5071642;28;20021;-70
2023/01/05 04:56:12;;;;;;;8.45;5.80;;;21.40;58.20;;;;;;5070388;28;20029;-71
2023/01/05 04:58:41;;;;;;;11.35;5.88;;;21.50;57.90;;;;;;5020377;28;20373;-72
2023/01/05 05:01:08;;;;;;;7.68;6.03;;;21.70;57.80;;;;;;5070245;28;20037;-73
2023/01/05 05:03:35;;;;;;;8.63;5.60;;;21.80;57.30;;;;;;5069973;28;20489;-73
2023/01/05 05:06:04;;;;;;;8.82;6.10;;;21.80;57.10;;;;;;5070110;28;20500;-72
2023/01/05 05:08:31;;;;;;;9.65;5.72;;;21.90;57.00;;;;;;5083205;28;20107;-71
2023/01/05 05:10:59;;;;;;;9.88;7.13;;;22.00;57.00;;;;;;5088819;28;20059;-71
2023/01/05 05:13:26;;;;;;;13.38;7.07;;;22.00;56.30;;;;;;5089958;28;20046;-71
2023/01/05 05:15:52;;;;;;;9.65;7.60;;;21.90;58.40;;;;;;5072321;28;20186;-73
2023/01/05 05:18:20;;;;;;;13.48;7.20;;;22.20;61.50;;;;;;5090011;28;20036;-71
2023/01/05 05:20:50;;;;;;;13.73;9.25;;;22.60;63.80;;;;;;5071972;28;20032;-74
2023/01/05 05:23:17;;;;;;;10.90;7.57;;;22.80;65.80;;;;;;5069797;28;20130;-73
2023/01/05 05:25:43;;;;;;;7.97;6.22;;;22.80;59.10;;;;;;5069543;28;20090;-71
2023/01/05 05:28:09;;;;;;;9.43;6.05;;;22.60;57.30;;;;;;5051897;28;20038;-72
2023/01/05 05:30:37;;;;;;;9.02;6.97;;;22.70;55.80;;;;;;5051845;28;20115;-72
2023/01/05 05:33:03;;;;;;;11.02;6.82;;;22.60;54.70;;;;;;5051873;28;20052;-73
2023/01/05 05:35:29;;;;;;;9.35;6.72;;;22.40;53.60;;;;;;5070809;28;20657;-71
2023/01/05 05:37:55;;;;;;;8.65;6.35;;;22.20;52.80;;;;;;5068531;28;20040;-71
2023/01/05 05:40:21;;;;;;;7.53;6.50;;;22.20;53.60;;;;;;5070522;28;20384;-69
2023/01/05 05:42:47;;;;;;;16.83;11.80;;;22.00;54.90;;;;;;5070909;28;20059;-72
2023/01/05 05:45:13;;;;;;;11.05;7.43;;;22.00;55.60;;;;;;5070740;28;20028;-71
2023/01/05 05:47:39;;;;;;;10.95;6.75;;;21.90;55.90;;;;;;5070530;28;20598;-72
2023/01/05 05:50:05;;;;;;;11.52;6.38;;;21.80;56.10;;;;;;5070629;28;20040;-71
2023/01/05 05:52:31;;;;;;;11.75;6.60;;;21.80;56.40;;;;;;5070588;28;20378;-70
2023/01/05 05:54:57;;;;;;;9.75;6.68;;;21.90;61.40;;;;;;5070641;28;20035;-71
2023/01/05 05:57:23;;;;;;;10.25;6.10;;;22.60;63.40;;;;;;5051338;28;20055;-71
2023/01/05 05:59:49;;;;;;;8.00;5.43;;;23.00;64.40;;;;;;5050233;28;20040;-70
2023/01/05 06:02:16;;;;;;;8.20;6.30;;;23.40;66.00;;;;;;5069087;28;20155;-70
2023/01/05 06:04:43;;;;;;;11.18;7.38;;;23.70;68.10;;;;;;5068034;28;20055;-70
2023/01/05 06:07:08;;;;;;;12.55;6.65;;;24.10;62.70;;;;;;5070527;28;20036;-71
2023/01/05 06:09:34;;;;;;;7.90;6.10;;;23.70;51.10;;;;;;5065181;28;20080;-71
2023/01/05 06:12:00;;;;;;;8.60;6.90;;;23.60;51.50;;;;;;5050209;28;20029;-71
2023/01/05 06:14:26;;;;;;;10.77;8.05;;;23.50;47.30;;;;;;5050419;28;20037;-70
2023/01/05 06:16:52;;;;;;;10.93;6.72;;;23.40;47.50;;;;;;5050072;28;20444;-71
2023/01/05 06:19:18;;;;;;;11.05;7.70;;;23.40;46.80;;;;;;5050040;28;20070;-69
2023/01/05 06:21:44;;;;;;;10.75;6.88;;;23.50;63.40;;;;;;5049905;28;20090;-68
2023/01/05 06:24:10;;;;;;;9.93;6.97;;;23.50;54.40;;;;;;5049863;28;20040;-70
2023/01/05 06:26:36;;;;;;;13.30;7.85;;;23.60;54.70;;;;;;5050584;28;20057;-70
2023/01/05 06:29:02;;;;;;;15.15;9.73;;;23.60;49.90;;;;;;5050363;28;20033;-71
2023/01/05 06:31:28;;;;;;;14.18;10.95;;;23.60;51.40;;;;;;5050179;28;20044;-72
2023/01/05 06:33:54;;;;;;;13.27;6.60;;;23.50;53.90;;;;;;5032517;28;20123;-71
2023/01/05 06:36:20;;;;;;;8.95;6.93;;;23.60;51.40;;;;;;5050328;28;20163;-69
2023/01/05 06:38:46;;;;;;;9.60;6.60;;;23.70;50.80;;;;;;5032297;28;20547;-71
2023/01/05 06:41:12;;;;;;;8.50;5.65;;;23.70;53.70;;;;;;5032227;28;20053;-72
2023/01/05 06:43:38;;;;;;;9.40;5.82;;;23.80;48.30;;;;;;5049954;28;20052;-70
2023/01/05 06:46:04;;;;;;;5.32;2.50;;;23.90;52.20;;;;;;5049708;28;20037;-75
2023/01/05 06:48:30;;;;;;;5.18;2.17;;;23.90;70.00;;;;;;5049510;28;20044;-76
2023/01/05 06:50:56;;;;;;;3.13;2.83;;;24.10;60.40;;;;;;5049923;28;20029;-75
2023/01/05 06:53:22;;;;;;;6.97;4.25;;;24.10;64.40;;;;;;5050003;28;20037;-75
2023/01/05 06:55:48;;;;;;;8.00;4.35;;;24.30;67.80;;;;;;5050352;28;20075;-74
2023/01/05 06:58:14;;;;;;;3.70;1.80;;;24.10;66.80;;;;;;5050121;28;20100;-76
2023/01/05 07:00:40;;;;;;;4.72;2.92;;;24.30;66.20;;;;;;5050051;28;20045;-68
2023/01/05 07:03:06;;;;;;;3.58;1.40;;;24.30;59.90;;;;;;5052362;28;20033;-71
2023/01/05 07:05:32;;;;;;;7.53;3.50;;;24.30;56.50;;;;;;5063051;28;20507;-71
2023/01/05 07:07:58;;;;;;;3.47;2.50;;;24.10;57.10;;;;;;5074808;28;20036;-67
2023/01/05 07:10:24;;;;;;;4.30;3.22;;;24.10;58.90;;;;;;5058826;28;20390;-69
2023/01/05 07:12:50;;;;;;;9.75;2.33;;;24.20;57.30;;;;;;5060983;28;20055;-71
2023/01/05 07:15:16;;;;;;;6.35;3.90;;;24.10;58.10;;;;;;4992011;28;20126;-72
2023/01/05 07:17:42;;;;;;;8.35;6.65;;;24.10;59.00;;;;;;4993553;28;20038;-70
2023/01/05 07:20:08;;;;;;;8.73;6.63;;;24.10;55.60;;;;;;5020017;28;20045;-70
2023/01/05 07:22:34;;;;;;;10.65;7.85;;;24.10;50.20;;;;;;5010159;28;20033;-70
2023/01/05 07:25:00;;;;;;;11.23;7.47;;;24.00;49.70;;;;;;5004143;28;20056;-68
2023/01/05 07:27:26;;;;;;;12.95;6.45;;;23.90;48.10;;;;;;4991700;28;20085;-70
2023/01/05 07:29:52;;;;;;;12.57;8.35;;;23.90;47.10;;;;;;4991081;28;20122;-71
2023/01/05 07:32:18;;;;;;;12.30;8.35;;;23.80;47.20;;;;;;4991187;28;20423;-71
2023/01/05 07:34:44;;;;;;;8.00;5.72;;;23.80;47.50;;;;;;4991062;28;20050;-72
2023/01/05 07:37:10;;;;;;;12.40;7.35;;;23.80;48.00;;;;;;4991011;28;20038;-69
2023/01/05 07:39:36;;;;;;;10.15;6.40;;;23.80;50.10;;;;;;4991226;28;20069;-70
2023/01/05 07:42:02;;;;;;;7.47;6.28;;;23.90;62.30;;;;;;4996847;28;20045;-73
2023/01/05 07:44:29;;;;;;;8.70;6.20;;;24.20;68.00;;;;;;4994092;28;20057;-71
2023/01/05 07:46:55;;;;;;;11.10;6.53;;;24.30;61.10;;;;;;5042423;28;20433;-69
2023/01/05 07:49:21;;;;;;;12.48;7.57;;;24.30;63.20;;;;;;5052378;28;20075;-72
2023/01/05 07:51:47;;;;;;;9.65;6.95;;;24.40;62.10;;;;;;5052237;28;20041;-72
2023/01/05 07:54:14;;;;;;;8.50;6.25;;;24.50;54.20;;;;;;5052220;28;20523;-69
2023/01/05 07:56:40;;;;;;;11.00;6.88;;;24.50;48.90;;;;;;5052359;28;20036;-72
2023/01/05 07:59:06;;;;;;;8.45;5.88;;;24.40;50.30;;;;;;5052165;28;20029;-69
2023/01/05 08:01:32;;;;;;;7.68;5.60;;;24.40;61.80;;;;;;5052091;28;20040;-75
2023/01/05 08:03:58;;;;;;;8.80;5.63;;;24.40;52.30;;;;;;5000830;28;20049;-72
2023/01/05 08:06:24;;;;;;;8.23;6.25;;;24.40;53.60;;;;;;5052828;28;20036;-72
2023/01/05 08:08:50;;;;;;;7.78;5.32;;;24.30;52.30;;;;;;5052236;28;20108;-73
2023/01/05 08:11:19;;;;;;;8.55;6.22;;;24.10;52.50;;;;;;5052291;28;20412;-75
2023/01/05 08:14:04;;;;;;;8.82;6.20;;;23.90;53.30;;;;;;5052536;28;20060;-74
2023/01/05 08:16:32;;;;;;;8.80;6.22;;;23.90;53.10;;;;;;5061352;28;20060;-74
2023/01/05 08:18:59;;;;;;;8.68;6.40;;;23.70;54.50;;;;;;5054000;28;20036;-70
2023/01/05 08:21:25;;;;;;;7.95;5.85;;;23.80;54.80;;;;;;5072288;28;20035;-72
2023/01/05 08:23:56;;;;;;;10.60;6.90;;;23.60;55.80;;;;;;5072258;28;20029;-73
2023/01/05 08:26:22;;;;;;;9.18;6.20;;;23.40;54.60;;;;;;5055063;28;20029;-74
2023/01/05 08:28:49;;;;;;;11.00;6.70;;;23.60;50.20;;;;;;5072391;28;20039;-70
2023/01/05 08:31:19;;;;;;;9.85;6.82;;;23.30;49.50;;;;;;5071792;28;20462;-71
2023/01/05 08:33:46;;;;;;;12.27;7.15;;;23.10;58.40;;;;;;5072103;28;20078;-71
2023/01/05 08:36:14;;;;;;;9.43;5.88;;;23.10;57.00;;;;;;5071868;28;20024;-71
2023/01/05 08:38:47;;;;;;;8.68;5.97;;;23.10;56.50;;;;;;5071803;28;20481;-69
2023/01/05 08:41:26;;;;;;;9.82;6.25;;;23.00;56.90;;;;;;5053994;28;20021;-72
2023/01/05 08:43:55;;;;;;;8.23;5.78;;;22.90;55.70;;;;;;5071891;28;20090;-71
2023/01/05 08:46:24;;;;;;;12.25;6.25;;;22.90;56.20;;;;;;5071757;28;20075;-72
2023/01/05 08:48:52;;;;;;;10.18;5.80;;;22.90;58.40;;;;;;5071677;28;20040;-73
2023/01/05 08:51:18;;;;;;;8.70;6.13;;;22.90;58.70;;;;;;5071533;28;20489;-74
2023/01/05 08:53:45;;;;;;;11.50;7.13;;;22.80;57.40;;;;;;5053771;28;20369;-72
2023/01/05 08:56:11;;;;;;;10.27;6.95;;;22.80;58.90;;;;;;5071521;28;20032;-71
2023/01/05 08:58:38;;;;;;;9.88;6.20;;;22.80;55.30;;;;;;5071560;28;20033;-71
2023/01/05 09:01:09;;;;;;;10.43;5.97;;;22.80;58.90;;;;;;5071606;28;20508;-71
2023/01/05 09:03:36;;;;;;;6.32;4.85;;;22.80;57.60;;;;;;5071493;28;20440;-70
2023/01/05 09:06:03;;;;;;;8.43;5.55;;;22.80;59.00;;;;;;5071509;28;20424;-69
2023/01/05 09:08:31;;;;;;;7.45;4.32;;;22.90;58.30;;;;;;5057913;28;20090;-71
2023/01/05 09:11:19;;;;;;;8.50;5.10;;;22.90;59.10;;;;;;5051044;28;20052;-72
2023/01/05 09:13:47;;;;;;;7.53;5.28;;;23.00;60.30;;;;;;5071569;28;20085;-73
2023/01/05 09:16:17;;;;;;;7.95;5.30;;;23.20;63.80;;;;;;5063143;28;20044;-70
2023/01/05 09:18:44;;;;;;;9.65;5.10;;;23.30;57.80;;;;;;5055587;28;20025;-73
2023/01/05 09:21:10;;;;;;;7.07;4.80;;;23.40;51.30;;;;;;5065564;28;20105;-71
2023/01/05 09:23:38;;;;;;;10.82;4.80;;;23.40;48.90;;;;;;5053408;28;20087;-74
2023/01/05 09:26:06;;;;;;;14.00;5.35;;;23.60;47.20;;;;;;5035881;28;20029;-70
2023/01/05 09:28:35;;;;;;;14.25;5.43;;;23.80;48.00;;;;;;5071249;28;20051;-71
2023/01/05 09:31:30;;;;;;;7.28;4.10;;;23.70;48.80;;;;;;5027796;28;20049;-71
2023/01/05 09:33:57;;;;;;;9.10;4.43;;;24.10;54.70;;;;;;5008417;28;20061;-72
2023/01/05 09:36:24;;;;;;;5.82;3.92;;;24.00;55.90;;;;;;5008317;28;20088;-69
2023/01/05 09:38:52;;;;;;;8.35;4.47;;;24.10;56.10;;;;;;5008513;28;20046;-72
2023/01/05 09:41:26;;;;;;;7.88;5.18;;;24.00;56.20;;;;;;5008480;28;20050;-72
2023/01/05 09:43:59;;;;;;;8.30;4.38;;;23.90;56.50;;;;;;5008162;28;20087;-71
2023/01/05 09:46:32;;;;;;;;;;;24.10;56.80;;;;;;5008656;28;20050;-71
2023/01/05 09:49:00;;;;;;;;;;;24.00;52.20;;;;;;5009281;28;19917;-73
2023/01/05 09:51:27;;;;;;;8.25;4.53;;;24.10;48.70;;;;;;5007749;28;19916;-73
2023/01/05 09:53:53;;;;;;;8.05;4.85;;;24.10;52.80;;;;;;4988726;28;20126;-73
2023/01/05 09:56:28;;;;;;;8.02;5.30;;;24.30;52.40;;;;;;4997166;28;20049;-73
2023/01/05 09:59:14;;;;;;;10.52;5.22;;;24.50;53.30;;;;;;5007546;28;20034;-73
2023/01/05 10:01:40;;;;;;;10.18;4.80;;;24.60;51.10;;;;;;5007507;28;20133;-70
2023/01/05 10:04:16;;;;;;;8.15;5.20;;;24.70;47.10;;;;;;4991064;28;20050;-71
2023/01/05 10:06:49;;;;;;;7.68;4.90;;;24.70;47.70;;;;;;5007388;28;20475;-70
2023/01/05 10:09:23;;;;;;;6.15;4.25;;;24.60;46.60;;;;;;5009471;28;20445;-73
2023/01/05 10:15:01;;;;;;;5.28;4.03;;;24.50;43.10;;;;;;5050624;28;20037;-71
2023/01/05 10:17:31;;;;;;;7.85;4.50;;;24.30;44.40;;;;;;5050422;28;20071;-70
2023/01/05 10:19:57;;;;;;;5.15;3.72;;;24.50;54.00;;;;;;5050537;28;20037;-71
2023/01/05 10:22:37;;;;;;;5.55;4.00;;;24.40;54.60;;;;;;5050387;28;20087;-69
2023/01/05 10:25:25;;;;;;;4.63;3.45;;;24.50;55.40;;;;;;5050325;28;20045;-74
2023/01/05 10:28:09;;;;;;;5.13;3.25;;;24.40;55.80;;;;;;5032514;28;20033;-70
2023/01/05 10:30:46;;;;;;;7.13;4.30;;;24.20;56.10;;;;;;5050529;28;20052;-71
2023/01/05 10:33:29;;;;;;;15.15;5.05;;;24.30;50.40;;;;;;5050394;28;20040;-69
2023/01/05 10:35:55;;;;;;;;;;;24.50;53.70;;;;;;5050914;28;20033;-68
2023/01/05 10:38:31;;;;;;;5.03;3.75;;;24.60;51.20;;;;;;5050244;28;20011;-68
2023/01/05 10:41:26;;;;;;;6.47;3.47;;;24.70;58.00;;;;;;5050230;28;20112;-71
2023/01/05 10:44:16;;;;;;;5.97;3.70;;;24.80;60.80;;;;;;4972193;28;20125;-69
2023/01/05 10:46:47;;;;;;;7.43;4.80;;;24.70;58.80;;;;;;4972805;28;20760;-70
2023/01/05 10:49:25;;;;;;;6.85;3.60;;;24.60;56.30;;;;;;4972786;28;20510;-69
2023/01/05 10:51:52;;;;;;;4.88;3.95;;;24.70;51.00;;;;;;4956917;28;20034;-69
2023/01/05 10:54:38;;;;;;;3.92;2.85;;;24.70;47.70;;;;;;4972305;28;20562;-69
2023/01/05 10:57:27;;;;;;;5.22;3.25;;;24.70;59.10;;;;;;4972634;28;20066;-70
2023/01/05 11:00:04;;;;;;;5.20;3.22;;;24.70;58.10;;;;;;4972665;28;20081;-72
2023/01/05 11:02:36;;;;;;;6.18;3.92;;;24.70;58.20;;;;;;4972356;28;20047;-70
2023/01/05 11:05:05;;;;;;;14.07;4.45;;;24.60;57.70;;;;;;4972348;28;20051;-72
2023/01/05 11:07:31;;;;;;;8.05;3.58;;;24.60;58.00;;;;;;4974227;28;20495;-71
2023/01/05 11:09:57;;;;;;;7.13;4.13;;;24.60;57.90;;;;;;4963950;28;20059;-71
2023/01/05 11:12:24;;;;;;;5.38;3.90;;;24.50;57.90;;;;;;4991768;28;20037;-71
2023/01/05 11:14:53;;;;;;;7.00;4.05;;;24.50;58.10;;;;;;4991711;28;20125;-72
2023/01/05 11:17:22;;;;;;;6.47;3.88;;;24.40;58.20;;;;;;4976285;28;20084;-72
2023/01/05 11:19:54;;;;;;;7.68;4.18;;;24.30;58.40;;;;;;4974197;28;20091;-70
2023/01/05 11:22:37;;;;;;;5.60;3.67;;;24.40;58.50;;;;;;4958852;28;20046;-72
2023/01/05 11:25:31;;;;;;;7.35;4.30;;;24.30;58.70;;;;;;4975203;28;20527;-72
2023/01/05 11:28:04;;;;;;;6.85;4.38;;;24.30;58.90;;;;;;4991105;28;20026;-72
2023/01/05 11:30:30;;;;;;;5.65;2.75;;;24.30;59.00;;;;;;4974517;28;20108;-71
2023/01/05 11:32:57;;;;;;;6.55;3.20;;;24.30;59.00;;;;;;4990778;28;20038;-72
2023/01/05 11:35:34;;;;;;;3.88;2.50;;;24.30;59.10;;;;;;4974774;28;20443;-71
2023/01/05 11:38:00;;;;;;;3.92;2.78;;;24.20;59.00;;;;;;5048424;28;20045;-71
2023/01/05 11:40:34;;;;;;;6.30;3.90;;;24.20;59.10;;;;;;5017585;28;20049;-71
2023/01/05 11:43:10;;;;;;;5.65;3.65;;;24.30;59.40;;;;;;5052759;28;20041;-71
2023/01/05 11:45:44;;;;;;;7.10;4.28;;;24.20;59.30;;;;;;5053136;28;20036;-71
2023/01/05 11:48:19;;;;;;;12.35;4.15;;;24.20;59.30;;;;;;5052949;28;20477;-71
2023/01/05 11:50:55;;;;;;;5.28;2.90;;;24.30;59.20;;;;;;5052786;28;20037;-71
2023/01/05 11:53:33;;;;;;;3.10;2.67;;;24.20;59.10;;;;;;5000368;28;20045;-71
2023/01/05 11:56:07;;;;;;;6.57;2.90;;;24.10;59.50;;;;;;5052896;28;20045;-71
2023/01/05 11:58:42;;;;;;;6.22;3.55;;;24.30;59.70;;;;;;5052658;28;20052;-70
2023/01/05 12:01:49;;;;;;;5.70;3.10;;;24.20;59.60;;;;;;5052886;28;20033;-71
2023/01/05 12:04:33;;;;;;;5.05;3.38;;;24.10;59.60;;;;;;5052317;28;20056;-72
2023/01/05 12:07:18;;;;;;;5.25;3.15;;;24.20;59.60;;;;;;5052448;28;20043;-71
2023/01/05 12:09:55;;;;;;;5.65;3.47;;;24.10;59.70;;;;;;5052618;28;20099;-70
2023/01/05 12:12:43;;;;;;;6.03;3.30;;;24.10;59.30;;;;;;5052209;28;20132;-70
2023/01/05 12:15:33;;;;;;;6.20;4.15;;;24.10;59.60;;;;;;5033879;28;20387;-69
2023/01/05 12:18:37;;;;;;;6.50;3.90;;;24.10;61.40;;;;;;5052016;28;20032;-70
2023/01/05 12:21:18;;;;;;;6.47;3.85;;;24.00;63.50;;;;;;5051701;28;20092;-72
2023/01/05 12:24:06;;;;;;;7.45;4.20;;;23.90;63.00;;;;;;5050828;28;20112;-70
2023/01/05 12:26:53;;;;;;;6.55;5.05;;;23.90;62.50;;;;;;5051132;28;20033;-69
2023/01/05 12:29:45;;;;;;;6.47;4.30;;;23.90;62.50;;;;;;5051691;28;20029;-69
2023/01/05 12:32:20;;;;;;;9.60;4.13;;;23.80;62.40;;;;;;5051906;28;20068;-69
2023/01/05 12:35:04;;;;;;;4.93;3.53;;;23.90;62.30;;;;;;5051610;28;20051;-69
2023/01/05 12:37:36;;;;;;;5.90;3.88;;;23.80;62.30;;;;;;5051135;28;20456;-70
2023/01/05 12:40:26;;;;;;;8.02;3.28;;;23.90;62.00;;;;;;5061500;28;20037;-75
2023/01/05 12:43:06;;;;;;;6.90;3.70;;;23.90;60.70;;;;;;5072025;28;20618;-73
2023/01/05 12:46:02;;;;;;;6.53;3.63;;;24.00;59.20;;;;;;5045404;28;20131;-71
2023/01/05 12:48:34;;;;;;;5.30;3.13;;;23.90;57.20;;;;;;5051816;28;20099;-74
2023/01/05 12:51:33;;;;;;;7.75;2.75;;;23.90;55.60;;;;;;5064994;28;20040;-72
2023/01/05 12:54:07;;;;;;;5.95;3.10;;;23.90;53.70;;;;;;5071718;28;20413;-75
2023/01/05 12:56:38;;;;;;;4.43;2.85;;;23.90;54.20;;;;;;5060684;28;20440;-69
2023/01/05 12:59:27;;;;;;;2.95;2.30;;;23.80;53.20;;;;;;5032189;28;20509;-72
2023/01/05 13:02:24;;;;;;;7.72;3.47;;;23.90;53.90;;;;;;5033667;28;20394;-71
2023/01/05 13:04:59;;;;;;;7.82;3.05;;;23.90;53.10;;;;;;5050869;28;20098;-71
2023/01/05 13:07:29;;;;;;;5.15;2.88;;;23.90;54.40;;;;;;5051522;28;20060;-70
2023/01/05 13:10:13;;;;;;;4.20;2.65;;;23.90;54.40;;;;;;5070019;28;20592;-71
2023/01/05 13:12:41;;;;;;;4.90;2.58;;;23.80;54.20;;;;;;5071585;28;20041;-70
2023/01/05 13:15:10;;;;;;;6.65;3.22;;;23.90;54.40;;;;;;5071347;28;20036;-70
2023/01/05 13:17:50;;;;;;;4.78;2.53;;;23.70;54.40;;;;;;5071469;28;20103;-70
2023/01/05 13:20:34;;;;;;;3.42;2.97;;;23.70;54.70;;;;;;5071230;28;20583;-70
2023/01/05 13:23:05;;;;;;;5.47;3.00;;;23.80;54.80;;;;;;5070957;28;20039;-69
2023/01/05 13:25:40;;;;;;;5.20;3.25;;;23.90;55.20;;;;;;5070786;28;20578;-71
2023/01/05 13:28:16;;;;;;;4.25;2.42;;;23.70;55.20;;;;;;5070985;28;20043;-71
2023/01/05 13:31:12;;;;;;;5.03;3.13;;;23.80;55.40;;;;;;5070521;28;20086;-70
2023/01/05 13:33:57;;;;;;;5.85;3.50;;;23.80;55.60;;;;;;4969414;28;20042;-70
2023/01/05 13:36:44;;;;;;;4.72;3.33;;;23.80;55.80;;;;;;4969670;28;20037;-72
2023/01/05 13:39:21;;;;;;;3.47;3.00;;;23.70;56.20;;;;;;4953520;28;20053;-72